Data for 12/19/2012

Time Sea-Level Adjusted Pressure Absolute Pressure Temperature Relative Humidity Dew Point   
(mb) (inHg) (mb) (inHg) (C) (F) (%) (C) (F)
00:05 1012 29.88 841 24.83 -10.2 13.7 54 -17.7 0.1
00:10 1012 29.88 841 24.83 -10.2 13.6 54 -17.8 -0
00:15 1012 29.88 841 24.83 -10.3 13.5 54 -17.8 -0
00:20 1012 29.88 841 24.83 -10.4 13.3 55 -17.8 0
00:25 1012 29.88 841 24.83 -10.5 13.1 55 -17.9 -0.1
00:30 1012 29.88 841 24.83 -10.3 13.5 54 -18 -0.3
00:35 1012 29.88 841 24.83 -10.2 13.6 55 -17.7 0.2
00:40 1012 29.88 841 24.83 -10.2 13.6 54 -17.9 -0.2
00:45 1012 29.88 841 24.83 -10.4 13.4 54 -17.9 -0.2
00:50 1012 29.88 841 24.83 -10.3 13.4 54 -18 -0.5
00:55 1012 29.88 841 24.83 -9.9 14.1 52 -18.1 -0.5
01:00 1012 29.88 841 24.83 -9.6 14.7 50 -18.2 -0.7
01:05 1012 29.88 842 24.86 -9.2 15.4 50 -17.8 -0.1
01:10 1012 29.88 842 24.86 -9.4 15.2 51 -17.6 0.3
01:15 1012 29.88 842 24.86 -9.5 14.8 50 -18.1 -0.6
01:20 1012 29.88 842 24.86 -9.5 14.9 50 -18.1 -0.6
01:25 1012 29.88 842 24.86 -9.5 14.9 50 -18.2 -0.8
01:30 1012 29.88 842 24.86 -9.6 14.7 50 -18.2 -0.8
01:35 1012 29.88 842 24.86 -9.9 14.2 50 -18.5 -1.3
01:40 1012 29.88 842 24.86 -9.9 14.3 50 -18.5 -1.4
01:45 1012 29.88 842 24.86 -9.9 14.2 51 -18.2 -0.8
01:50 1012 29.88 842 24.86 -10.1 13.8 52 -18.2 -0.7
01:55 1013 29.91 842 24.86 -10.4 13.4 51 -18.6 -1.4
02:00 1013 29.91 842 24.86 -10.5 13 52 -18.6 -1.4
02:05 1013 29.91 842 24.86 -11 12.3 54 -18.6 -1.5
02:10 1013 29.91 842 24.86 -11.3 11.6 55 -18.6 -1.5
02:15 1013 29.91 842 24.86 -11.5 11.4 55 -18.7 -1.7
02:20 1013 29.91 842 24.86 -11.6 11.1 55 -18.9 -2
02:25 1013 29.91 842 24.86 -11.5 11.4 54 -19 -2.2
02:30 1013 29.91 842 24.86 -11.6 11.1 55 -18.8 -1.9
02:35 1013 29.91 842 24.86 -11.9 10.6 56 -18.9 -2
02:40 1013 29.91 842 24.86 -12.2 10.1 59 -18.7 -1.7
02:45 1013 29.91 842 24.86 -12.5 9.6 60 -18.8 -1.8
02:50 1013 29.91 842 24.86 -12.5 9.5 60 -18.8 -1.8
02:55 1013 29.91 842 24.86 -12.8 9 62 -18.6 -1.4
03:00 1013 29.91 842 24.86 -12.9 8.8 65 -18.1 -0.6
03:05 1013 29.91 842 24.86 -12.9 8.7 65 -18.1 -0.7
03:10 1013 29.91 842 24.86 -13.2 8.2 65 -18.4 -1.2
03:15 1013 29.91 842 24.86 -13.5 7.6 66 -18.6 -1.5
03:20 1013 29.91 842 24.86 -13.3 8 64 -18.7 -1.7
03:25 1013 29.91 842 24.86 -12.6 9.3 60 -18.9 -2
03:30 1013 29.91 842 24.86 -12 10.3 59 -18.5 -1.3
03:35 1013 29.91 842 24.86 -12.3 9.9 62 -18.1 -0.6
03:40 1013 29.91 842 24.86 -12.4 9.8 59 -18.8 -1.9
03:45 1013 29.91 842 24.86 -11.8 10.7 56 -18.9 -2
03:50 1013 29.91 842 24.86 -11.7 10.9 57 -18.7 -1.6
03:55 1013 29.91 842 24.86 -12 10.4 58 -18.7 -1.6
04:00 1013 29.91 842 24.86 -11.9 10.5 57 -18.9 -2
04:05 1013 29.91 842 24.86 -12.1 10.2 58 -18.8 -1.8
04:10 1013 29.91 842 24.86 -12.5 9.5 59 -19 -2.3
04:15 1013 29.91 842 24.86 -12.8 8.9 61 -18.8 -1.9
04:20 1013 29.91 842 24.86 -12.5 9.5 59 -18.9 -2
04:25 1013 29.91 842 24.86 -12.5 9.5 60 -18.6 -1.6
04:30 1013 29.91 842 24.86 -12.1 10.2 60 -18.4 -1.1
04:35 1013 29.91 842 24.86 -12.4 9.6 61 -18.5 -1.3
04:40 1013 29.91 842 24.86 -13 8.6 63 -18.6 -1.5
04:45 1013 29.91 842 24.86 -13 8.6 63 -18.7 -1.7
04:50 1013 29.91 842 24.86 -12.7 9.2 61 -18.8 -1.8
04:55 1013 29.91 843 24.89 -12.5 9.5 63 -18.2 -0.8
05:00 1013 29.91 843 24.89 -12.5 9.6 59 -18.9 -2
05:05 1013 29.91 842 24.86 -12.3 9.8 61 -18.3 -1
05:10 1013 29.91 843 24.89 -12.6 9.4 61 -18.6 -1.5
05:15 1013 29.91 843 24.89 -12.9 8.7 60 -19.1 -2.3
05:20 1013 29.91 843 24.89 -12.7 9.1 60 -19.1 -2.3
05:25 1013 29.91 843 24.89 -12.4 9.6 59 -19 -2.1
05:30 1013 29.91 843 24.89 -12.4 9.7 58 -19 -2.1
05:35 1013 29.91 843 24.89 -12.1 10.2 57 -18.9 -2
05:40 1014 29.94 843 24.89 -12.3 9.8 58 -19 -2.1
05:45 1014 29.94 843 24.89 -12.1 10.1 57 -19.1 -2.3
05:50 1014 29.94 843 24.89 -11.6 11.1 54 -19.1 -2.4
05:55 1014 29.94 843 24.89 -11.3 11.7 55 -18.6 -1.5
06:00 1014 29.94 843 24.89 -11.4 11.4 56 -18.5 -1.2
06:05 1014 29.94 843 24.89 -11.7 11 55 -19.1 -2.4
06:10 1014 29.94 843 24.89 -11.6 11.2 57 -18.5 -1.3
06:15 1014 29.94 843 24.89 -12.1 10.1 58 -18.9 -1.9
06:20 1014 29.94 843 24.89 -12.9 8.8 60 -19.1 -2.3
06:25 1014 29.94 843 24.89 -12.6 9.3 61 -18.6 -1.5
06:30 1014 29.94 843 24.89 -12.8 9 63 -18.5 -1.3
06:35 1014 29.94 843 24.89 -13.1 8.3 63 -18.7 -1.7
06:40 1014 29.94 843 24.89 -13.5 7.6 62 -19.4 -2.8
06:45 1014 29.94 843 24.89 -13.2 8.2 61 -19.2 -2.6
06:50 1014 29.94 843 24.89 -13 8.6 63 -18.7 -1.6
06:55 1014 29.94 843 24.89 -12.8 8.9 61 -18.9 -2.1
07:00 1014 29.94 843 24.89 -12.8 8.9 62 -18.7 -1.6
07:05 1014 29.94 843 24.89 -12.7 9.1 61 -18.7 -1.7
07:10 1014 29.94 843 24.89 -12.6 9.3 61 -18.7 -1.7
07:15 1014 29.94 844 24.92 -12.5 9.5 60 -18.7 -1.7
07:20 1014 29.94 844 24.92 -12.4 9.7 60 -18.7 -1.6
07:25 1014 29.94 844 24.92 -12.5 9.5 62 -18.4 -1.2
07:30 1015 29.97 844 24.92 -12.6 9.4 59 -18.9 -2.1
07:35 1015 29.97 844 24.92 -12.6 9.4 62 -18.5 -1.3
07:40 1015 29.97 844 24.92 -12.5 9.4 63 -18.3 -0.9
07:45 1015 29.97 844 24.92 -12.7 9.2 65 -18 -0.4
07:50 1015 29.97 844 24.92 -12.7 9.2 59 -19.1 -2.3
07:55 1015 29.97 844 24.92 -11.5 11.3 54 -19 -2.2
08:00 1015 29.97 844 24.92 -11.2 11.9 54 -18.7 -1.7
08:05 1015 29.97 844 24.92 -11.2 11.8 56 -18.4 -1.1
08:10 1015 29.97 844 24.92 -11.3 11.8 56 -18.3 -1
08:15 1015 29.97 844 24.92 -11.3 11.6 56 -18.4 -1.2
08:20 1015 29.97 844 24.92 -11.3 11.6 58 -18.1 -0.6
08:25 1015 29.97 845 24.95 -11.2 11.8 58 -18 -0.4
08:30 1015 29.97 845 24.95 -11.1 11.9 57 -18 -0.4
08:35 1015 29.97 845 24.95 -11.2 11.8 58 -18 -0.4
08:40 1015 29.97 845 24.95 -11.2 11.9 58 -17.9 -0.3
08:45 1015 29.97 845 24.95 -11.3 11.8 59 -17.7 0.1
08:50 1015 29.97 845 24.95 -11.2 11.9 58 -18 -0.3
08:55 1016 30 845 24.95 -11.1 12 60 -17.5 0.6
09:00 1015 29.97 845 24.95 -10.9 12.4 60 -17.3 0.8
09:05 1016 30 845 24.95 -10.9 12.4 57 -17.8 0
09:10 1016 30 845 24.95 -11.2 11.8 59 -17.7 0.2
09:15 1016 30 845 24.95 -11.3 11.6 59 -17.8 -0.1
09:20 1016 30 845 24.95 -11.3 11.7 57 -18.3 -0.9
09:25 1016 30 845 24.95 -11.4 11.6 55 -18.7 -1.6
09:30 1016 30 845 24.95 -11.2 11.9 56 -18.4 -1.1
09:35 1016 30 845 24.95 -11.2 11.8 59 -17.8 -0.1
09:40 1016 30 845 24.95 -11.4 11.5 60 -17.8 -0
09:45 1016 30 845 24.95 -11.1 12 56 -18.2 -0.7
09:50 1016 30 845 24.95 -10.5 13.1 55 -18 -0.4
09:55 1016 30 845 24.95 -10.3 13.5 51 -18.5 -1.3
10:00 1016 30 845 24.95 -10.5 13.1 53 -18.4 -1.2
10:05 1016 30 845 24.95 -10.4 13.3 51 -18.6 -1.6
10:10 1016 30 845 24.95 -10.4 13.2 50 -19 -2.2
10:15 1016 30 845 24.95 -10.3 13.5 50 -18.8 -1.9
10:20 1016 30 846 24.98 -10.4 13.3 51 -18.6 -1.5
10:25 1016 30 846 24.98 -10.2 13.6 51 -18.5 -1.4
10:30 1017 30.03 846 24.98 -10.5 13.1 53 -18.3 -1
10:35 1017 30.03 846 24.98 -11 12.2 54 -18.7 -1.6
10:40 1017 30.03 846 24.98 -11.2 11.8 54 -18.8 -1.8
10:45 1017 30.03 846 24.98 -10.9 12.4 53 -18.8 -1.9
10:50 1017 30.03 846 24.98 -10.5 13.1 53 -18.3 -0.9
10:55 1017 30.03 846 24.98 -10.3 13.5 52 -18.4 -1.1
11:00 1017 30.03 846 24.98 -10.1 13.8 51 -18.4 -1.1
11:05 1017 30.03 846 24.98 -9.6 14.7 49 -18.5 -1.3
11:10 1017 30.03 846 24.98 -9.3 15.3 48 -18.3 -0.9
11:15 1017 30.03 846 24.98 -9.3 15.3 49 -18.2 -0.8
11:20 1017 30.03 846 24.98 -9.2 15.4 50 -17.9 -0.3
11:25 1017 30.03 846 24.98 -9.4 15.1 49 -18.1 -0.7
11:30 1017 30.03 846 24.98 -8.9 15.9 45 -18.8 -1.8
11:35 1017 30.03 846 24.98 -8.8 16.2 47 -18.2 -0.7
11:40 1017 30.03 846 24.98 -8.6 16.6 47 -18.1 -0.5
11:45 1017 30.03 846 24.98 -8.2 17.2 45 -18.1 -0.6
11:50 1017 30.03 846 24.98 -8 17.5 44 -18.2 -0.7
11:55 1017 30.03 846 24.98 -7.9 17.9 44 -18.2 -0.8
12:00 1017 30.03 846 24.98 -7.3 18.8 45 -17.5 0.5
12:05 1017 30.03 846 24.98 -7.9 17.9 44 -18.1 -0.6
12:10 1017 30.03 846 24.98 -7.4 18.7 43 -18 -0.3
12:15 1017 30.03 846 24.98 -7.1 19.2 41 -18.2 -0.8
12:20 1017 30.03 846 24.98 -6.5 20.3 42 -17.3 0.9
12:25 1017 30.03 846 24.98 -6.2 20.8 40 -17.7 0.1
12:30 1017 30.03 846 24.98 -6 21.3 39 -17.7 0.1
12:35 1017 30.03 846 24.98 -5.6 22 37 -18.1 -0.6
12:40 1017 30.03 846 24.98 -5.7 21.8 36 -18.5 -1.2
12:45 1017 30.03 846 24.98 -5.6 21.9 36 -18.5 -1.3
12:50 1017 30.03 846 24.98 -5.9 21.4 38 -18.1 -0.5
12:55 1017 30.03 846 24.98 -5.7 21.7 36 -18.4 -1.1
13:00 1017 30.03 846 24.98 -5.6 21.9 37 -18.3 -0.9
13:05 1017 30.03 846 24.98 -5.9 21.5 36 -18.7 -1.7
13:10 1017 30.03 846 24.98 -6.1 21 38 -18.4 -1.2
13:15 1017 30.03 846 24.98 -5.8 21.6 38 -18 -0.4
13:20 1017 30.03 846 24.98 -5.2 22.7 35 -18.4 -1.1
13:25 1017 30.03 846 24.98 -4.8 23.4 34 -18.3 -0.9
13:30 1017 30.03 846 24.98 -4.6 23.7 35 -17.7 0.1
13:35 1017 30.03 846 24.98 -4.2 24.4 35 -17.6 0.3
13:40 1017 30.03 846 24.98 -4 24.7 34 -17.8 0
13:45 1017 30.03 846 24.98 -3.9 25 34 -17.7 0.1
13:50 1017 30.03 846 24.98 -4.2 24.4 34 -18 -0.4
13:55 1017 30.03 846 24.98 -4.3 24.3 35 -17.6 0.3
14:00 1017 30.03 846 24.98 -4.2 24.4 36 -17.3 0.8
14:05 1017 30.03 846 24.98 -4.3 24.2 36 -17.4 0.7
14:10 1017 30.03 846 24.98 -4.4 24.1 38 -16.7 1.9
14:15 1017 30.03 846 24.98 -4.2 24.5 35 -17.4 0.6
14:20 1017 30.03 846 24.98 -3.9 24.9 36 -16.8 1.7
14:25 1017 30.03 846 24.98 -4 24.7 36 -17 1.5
14:30 1017 30.03 846 24.98 -3.5 25.6 34 -17.2 1.1
14:35 1017 30.03 846 24.98 -3.2 26.3 35 -16.7 1.9
14:40 1017 30.03 846 24.98 -3 26.6 32 -17.5 0.4
14:45 1017 30.03 846 24.98 -2.7 27.1 32 -17.2 1.1
14:50 1017 30.03 846 24.98 -2.9 26.7 32 -17.5 0.4
14:55 1017 30.03 846 24.98 -3 26.6 32 -17.5 0.5
15:00 1017 30.03 846 24.98 -3.1 26.5 32 -17.5 0.6
15:05 1017 30.03 846 24.98 -2.8 26.9 32 -17.3 0.8
15:10 1017 30.03 846 24.98 -3.1 26.4 32 -17.5 0.4
15:15 1017 30.03 846 24.98 -3.1 26.4 33 -17.3 0.8
15:20 1017 30.03 846 24.98 -3.3 26 32 -17.6 0.2
15:25 1017 30.03 846 24.98 -3.5 25.7 33 -17.7 0.1
15:30 1017 30.03 846 24.98 -3.2 26.2 33 -17.4 0.7
15:35 1017 30.03 846 24.98 -3.2 26.3 32 -17.8 -0
15:40 1017 30.03 846 24.98 -3.2 26.2 33 -17.4 0.7
15:45 1017 30.03 846 24.98 -4.1 24.6 34 -17.9 -0.2
15:50 1017 30.03 846 24.98 -5.3 22.4 36 -18.1 -0.6
15:55 1017 30.03 846 24.98 -5.3 22.5 36 -18.1 -0.6
16:00 1017 30.03 846 24.98 -5.2 22.7 36 -18.2 -0.8
16:05 1017 30.03 846 24.98 -3.7 25.4 32 -18 -0.5
16:10 1017 30.03 846 24.98 -3.6 25.5 33 -17.5 0.4
16:15 1017 30.03 846 24.98 -4 24.8 33 -17.9 -0.3
16:20 1017 30.03 846 24.98 -4 24.7 34 -17.8 -0.1
16:25 1017 30.03 846 24.98 -4.5 23.9 34 -18.2 -0.8
16:30 1017 30.03 846 24.98 -4.3 24.3 32 -18.5 -1.4
16:35 1017 30.03 846 24.98 -3.9 24.9 34 -17.7 0.1
16:40 1017 30.03 846 24.98 -4 24.7 33 -17.9 -0.3
16:45 1017 30.03 846 24.98 -4 24.7 33 -18 -0.4
16:50 1017 30.03 846 24.98 -4.7 23.6 36 -17.8 0
16:55 1017 30.03 846 24.98 -4.8 23.4 35 -18 -0.4
17:00 1017 30.03 846 24.98 -4.4 24.1 34 -18.1 -0.6
17:05 1017 30.03 846 24.98 -4.2 24.4 33 -18.2 -0.7
17:10 1017 30.03 846 24.98 -4.9 23.2 36 -17.7 0.1
17:15 1017 30.03 846 24.98 -5.7 21.7 36 -18.4 -1.1
17:20 1017 30.03 846 24.98 -5.8 21.5 38 -18.1 -0.6
17:25 1017 30.03 846 24.98 -5.6 22 37 -18 -0.3
17:30 1017 30.03 846 24.98 -5.4 22.2 37 -18.1 -0.6
17:35 1017 30.03 846 24.98 -5.6 21.8 37 -18.3 -1
17:40 1017 30.03 847 25.01 -5.8 21.5 39 -17.8 -0.1
17:45 1017 30.03 847 25.01 -6.2 20.9 41 -17.4 0.7
17:50 1017 30.03 847 25.01 -6.7 20 44 -17 1.4
17:55 1017 30.03 847 25.01 -7.5 18.6 45 -17.4 0.7
18:00 1017 30.03 847 25.01 -7.8 18.1 46 -17.5 0.4
18:05 1017 30.03 847 25.01 -7.8 18.1 46 -17.5 0.6
18:10 1017 30.03 847 25.01 -8.2 17.2 45 -18.2 -0.7
18:15 1017 30.03 847 25.01 -7.6 18.3 44 -17.8 -0
18:20 1018 30.06 847 25.01 -8.3 17 48 -17.5 0.4
18:25 1018 30.06 847 25.01 -8.6 16.5 48 -17.9 -0.2
18:30 1018 30.06 847 25.01 -8.6 16.5 53 -16.6 2
18:35 1018 30.06 847 25.01 -8.6 16.4 47 -18.2 -0.7
18:40 1018 30.06 847 25.01 -8.2 17.3 47 -17.6 0.2
18:45 1018 30.06 847 25.01 -8.8 16.1 50 -17.4 0.6
18:50 1018 30.06 847 25.01 -9.4 15 53 -17.4 0.7
18:55 1018 30.06 847 25.01 -9.8 14.3 52 -18 -0.5
19:00 1018 30.06 847 25.01 -10.6 12.9 54 -18.2 -0.8
19:05 1018 30.06 847 25.01 -11 12.2 55 -18.4 -1.1
19:10 1018 30.06 847 25.01 -11.7 10.9 57 -18.7 -1.6
19:15 1018 30.06 847 25.01 -11.8 10.7 56 -18.9 -2
19:20 1018 30.06 847 25.01 -11.1 12 50 -19.7 -3.4
19:25 1018 30.06 847 25.01 -10.3 13.5 50 -18.9 -2.1
19:30 1018 30.06 847 25.01 -10.4 13.3 51 -18.8 -1.8
19:35 1018 30.06 847 25.01 -10.4 13.4 50 -19 -2.1
19:40 1018 30.06 847 25.01 -10.5 13.2 52 -18.6 -1.6
19:45 1018 30.06 847 25.01 -11 12.1 52 -19 -2.3
19:50 1018 30.06 847 25.01 -10.9 12.3 51 -19.2 -2.6
19:55 1018 30.06 847 25.01 -10.9 12.5 51 -19.2 -2.5
20:00 1018 30.06 847 25.01 -11 12.2 50 -19.4 -3
20:05 1018 30.06 847 25.01 -10.8 12.6 50 -19.3 -2.7
20:10 1018 30.06 847 25.01 -10.8 12.6 50 -19.4 -2.8
20:15 1018 30.06 847 25.01 -11.2 11.9 52 -19.2 -2.5
20:20 1018 30.06 847 25.01 -11.5 11.2 55 -19 -2.2
20:25 1018 30.06 847 25.01 -11.8 10.8 53 -19.6 -3.3
20:30 1018 30.06 847 25.01 -11 12.1 49 -19.7 -3.5
20:35 1018 30.06 847 25.01 -10.4 13.3 47 -19.7 -3.5
20:40 1018 30.06 848 25.04 -10.5 13.1 48 -19.4 -3
20:45 1018 30.06 848 25.04 -10.7 12.8 49 -19.5 -3
20:50 1018 30.06 848 25.04 -10.5 13.1 48 -19.4 -3
20:55 1018 30.06 848 25.04 -10.5 13.1 48 -19.4 -3
21:00 1019 30.09 848 25.04 -10.5 13.1 49 -19.3 -2.8
21:05 1019 30.09 848 25.04 -10.6 12.9 50 -19.3 -2.7
21:10 1019 30.09 848 25.04 -10.8 12.6 49 -19.6 -3.2
21:15 1019 30.09 848 25.04 -10.6 12.9 50 -19.2 -2.5
21:20 1019 30.09 848 25.04 -10.6 13 49 -19.3 -2.8
21:25 1019 30.09 848 25.04 -10.6 12.9 50 -19.2 -2.6
21:30 1019 30.09 848 25.04 -10.8 12.6 50 -19.3 -2.7
21:35 1019 30.09 848 25.04 -10.8 12.6 50 -19.2 -2.6
21:40 1019 30.09 848 25.04 -10.6 12.9 50 -19.1 -2.4
21:45 1019 30.09 848 25.04 -10.7 12.7 51 -19.1 -2.4
21:50 1019 30.09 848 25.04 -10.7 12.8 49 -19.4 -2.9
21:55 1019 30.09 848 25.04 -10.4 13.3 49 -19.2 -2.5
22:00 1019 30.09 848 25.04 -10.3 13.4 49 -19.1 -2.4
22:05 1019 30.09 848 25.04 -10.4 13.2 50 -19 -2.2
22:10 1019 30.09 848 25.04 -10.5 13.1 49 -19.3 -2.7
22:15 1019 30.09 848 25.04 -10.4 13.3 49 -19.2 -2.6
22:20 1019 30.09 848 25.04 -10.3 13.4 49 -19.1 -2.4
22:25 1019 30.09 848 25.04 -10.3 13.4 49 -19.2 -2.5
22:30 1019 30.09 848 25.04 -10.3 13.5 49 -19.1 -2.4
22:35 1019 30.09 848 25.04 -10.2 13.6 49 -19 -2.3
22:40 1019 30.09 848 25.04 -10.1 13.8 49 -19 -2.3
22:45 1019 30.09 848 25.04 -9.9 14.1 48 -19 -2.2
22:50 1019 30.09 848 25.04 -9.9 14.1 48 -18.9 -2.1
22:55 1019 30.09 848 25.04 -9.9 14.3 48 -19.1 -2.3
23:00 1019 30.09 848 25.04 -9.8 14.4 48 -18.8 -1.9
23:05 1019 30.09 848 25.04 -10 14.1 49 -18.8 -1.9
23:10 1019 30.09 848 25.04 -9.9 14.1 49 -18.8 -1.8
23:15 1019 30.09 848 25.04 -9.8 14.3 49 -18.7 -1.6
23:20 1019 30.09 848 25.04 -10 14.1 50 -18.6 -1.4
23:25 1019 30.09 848 25.04 -10 13.9 50 -18.6 -1.5
23:30 1019 30.09 848 25.04 -9.8 14.4 49 -18.5 -1.4
23:35 1019 30.09 848 25.04 -9.6 14.7 49 -18.5 -1.2
23:40 1019 30.09 848 25.04 -9.7 14.5 50 -18.4 -1
23:45 1019 30.09 848 25.04 -9.8 14.3 50 -18.3 -1
23:50 1019 30.09 848 25.04 -9.8 14.4 50 -18.3 -0.9
23:55 1019 30.09 848 25.04 -9.9 14.2 51 -18.2 -0.7
24:00 1019 30.09 848 25.04 -10.2 13.7 52 -18.3 -0.9